Meloria — IBXK — position and weather

sailwx.info

Track history (hours):
 
Tides and Currents Weather Stations Pressure Air Temp Water Temp Dewpoint Dewpoint Depression Visibility Wind Speed Wind Dir Waves Ship Positions

Meloria

Last reported at 2016-May-27 20:23 UTC. Time now 2016-May-27 22:07 UTC.
Position N 41°49' E 010°41'.

Length 176 m; draft 9 m.

Type: Ship (hazmat cat A). MMSI: 247171100.

Date/timePositionNaut miles runAvg speedWind from/ knotsBaromVisibWave heightAir tempDewpointWater temp
2016-May-27 20:23N 41°49' E 010°41'4812.6
2016-May-27 16:33N 41°17' E 011°30'3012.1
2016-May-27 14:04N 40°56' E 011°59'712.7
2016-May-27 13:30N 40°51' E 012°06'1312.6
2016-May-27 12:29N 40°43' E 012°18'4212.7
2016-May-27 09:08N 40°15' E 013°00'1112.6
2016-May-27 08:17N 40°07' E 013°11'1012.8
2016-May-27 07:30N 40°01' E 013°21'1212.7
2016-May-27 06:33N 39°53' E 013°32'1312.9
2016-May-27 05:33N 39°44' E 013°45'1313.0
2016-May-27 04:33N 39°35' E 013°57'1313.0
2016-May-27 03:33N 39°27' E 014°10'1413.1
2016-May-27 02:27N 39°17' E 014°23'1213.1
2016-May-27 01:33N 39°09' E 014°34'1312.9
2016-May-27 00:33N 39°00' E 014°47'2813.0
2016-May-26 22:23N 38°41' E 015°13'1012.7
2016-May-26 21:33N 38°31' E 015°17'1312.6
2016-May-26 20:33N 38°18' E 015°18'5 5.0
2016-May-26 19:30N 38°13' E 015°17'0 0.0
2016-May-26 18:30N 38°13' E 015°17'0 0.1
2016-May-26 17:30N 38°13' E 015°17'1 0.9
2016-May-26 16:33N 38°13' E 015°16'0 0.3
2016-May-26 15:29N 38°13' E 015°16'0 0.0
2016-May-26 14:29N 38°13' E 015°16'0 0.0
2016-May-26 13:29N 38°13' E 015°16'0 0.0
2016-May-26 12:29N 38°13' E 015°16'0 0.0
2016-May-26 11:29N 38°13' E 015°16'0 0.0
2016-May-26 10:29N 38°13' E 015°16'0 0.0
2016-May-26 09:23N 38°13' E 015°16'0 0.0
2016-May-26 08:23N 38°13' E 015°16'0 0.0
2016-May-26 07:29N 38°13' E 015°16'0 0.0
2016-May-26 06:29N 38°13' E 015°16'0 0.0
2016-May-26 05:29N 38°13' E 015°16'0 0.0
2016-May-26 04:29N 38°13' E 015°16'0 0.0
2016-May-26 03:29N 38°13' E 015°16'0 0.0
2016-May-26 02:29N 38°13' E 015°16'0 0.0
2016-May-26 01:29N 38°13' E 015°16'0 0.0
2016-May-26 00:28N 38°13' E 015°16'0 0.0
2016-May-25 23:28N 38°13' E 015°16'0 0.0
2016-May-25 22:28N 38°13' E 015°16'0 0.0
2016-May-25 21:28N 38°13' E 015°16'0 0.0
2016-May-25 20:28N 38°13' E 015°16'0 0.0
2016-May-25 19:28N 38°13' E 015°16'0 0.0
2016-May-25 18:22N 38°13' E 015°16'0 0.0
2016-May-25 17:28N 38°13' E 015°16'0 0.0
2016-May-25 16:28N 38°13' E 015°16'0 0.0
2016-May-25 15:28N 38°13' E 015°16'0 0.0
2016-May-25 14:28N 38°13' E 015°16'0 0.0
2016-May-25 13:28N 38°13' E 015°16'0 0.0
2016-May-25 12:28N 38°13' E 015°16'0 0.0
2016-May-25 11:28N 38°13' E 015°16'0 0.0
2016-May-25 10:28N 38°13' E 015°16'0 0.0
2016-May-25 06:16N 38°13' E 015°16'0 0.6
2016-May-25 05:33N 38°13' E 015°16'1 0.1
2016-May-24 17:20N 38°13' E 015°18'0 0.0
2016-May-24 15:20N 38°13' E 015°18'0 0.0
2016-May-23 13:16N 38°13' E 015°18'5 7.5
2016-May-23 12:33N 38°17' E 015°22'1212.0
2016-May-23 11:33N 38°20' E 015°37'6 6.3
2016-May-23 10:33N 38°14' E 015°37'1212.0
2016-May-23 09:33N 38°01' E 015°36'  
2016-May-20 22:32N 45°26' E 012°14'0 0.0
2016-May-20 21:32N 45°26' E 012°14'0 0.0
2016-May-20 20:32N 45°26' E 012°14'0 0.0
2016-May-20 19:29N 45°26' E 012°14'0 0.0
2016-May-20 18:32N 45°26' E 012°14'0 0.0
2016-May-20 17:32N 45°26' E 012°14'0 0.0
2016-May-20 16:29N 45°26' E 012°14'0 0.0
2016-May-20 15:32N 45°26' E 012°14'0 0.0
2016-May-20 14:32N 45°26' E 012°14'0 0.0
2016-May-20 13:32N 45°26' E 012°14'0 0.0
2016-May-20 12:31N 45°26' E 012°14'0 0.0
2016-May-20 11:32N 45°26' E 012°14'0 0.0
2016-May-20 10:31N 45°26' E 012°14'0 0.0
2016-May-20 09:31N 45°26' E 012°14'0 0.0
2016-May-20 08:31N 45°26' E 012°14'0 0.0
2016-May-20 07:31N 45°26' E 012°14'0 0.0
2016-May-20 06:31N 45°26' E 012°14'0 0.0
2016-May-20 05:31N 45°26' E 012°14'0 0.0
2016-May-20 04:28N 45°26' E 012°14'0 0.0
2016-May-20 03:31N 45°26' E 012°14'0 0.0
2016-May-20 02:28N 45°26' E 012°14'0 0.0
2016-May-20 01:31N 45°26' E 012°14'0 0.0
2016-May-20 00:31N 45°26' E 012°14'0 0.0
2016-May-19 23:31N 45°26' E 012°14'0 0.0
2016-May-19 22:31N 45°26' E 012°14'0 0.0
2016-May-19 21:31N 45°26' E 012°14'0 0.0
2016-May-19 20:31N 45°26' E 012°14'0 0.0
2016-May-19 19:25N 45°26' E 012°14'0 0.0
2016-May-19 18:25N 45°26' E 012°14'0 0.0
2016-May-19 17:31N 45°26' E 012°14'0 0.0
2016-May-19 16:31N 45°26' E 012°14'0 0.0
2016-May-19 15:31N 45°26' E 012°14'0 0.3
2016-May-19 14:33N 45°26' E 012°14'4 4.1
2016-May-19 13:33N 45°23' E 012°15'7 7.5
2016-May-19 12:34N 45°19' E 012°25'1 1.3
2016-May-19 11:31N 45°19' E 012°27'0 0.0
2016-May-19 10:31N 45°19' E 012°27'0 0.0
2016-May-19 09:31N 45°19' E 012°27'0 0.0
2016-May-19 08:31N 45°19' E 012°27'0 0.0
2016-May-19 07:28N 45°19' E 012°27'0 0.1
2016-May-19 06:31N 45°19' E 012°27'0 0.0
2016-May-19 05:31N 45°19' E 012°27'0 0.0
2016-May-19 04:31N 45°19' E 012°27'0 0.0
2016-May-19 03:31N 45°19' E 012°27'0 0.0
2016-May-19 02:28N 45°19' E 012°27'0 0.0
2016-May-19 01:31N 45°19' E 012°27'0 0.1
2016-May-19 00:31N 45°19' E 012°27'0 0.1
2016-May-18 23:31N 45°19' E 012°27'0 0.1
2016-May-18 22:28N 45°19' E 012°27'0 0.1
2016-May-18 21:33N 45°19' E 012°27'0 0.0
2016-May-18 20:30N 45°19' E 012°27'0 0.1
2016-May-18 19:33N 45°19' E 012°27'0 0.0
2016-May-18 18:33N 45°19' E 012°27'0 0.1
2016-May-18 17:33N 45°19' E 012°27'0 0.0
2016-May-18 16:33N 45°19' E 012°27'0 0.0
2016-May-18 15:33N 45°19' E 012°27'0 0.0
2016-May-18 14:33N 45°19' E 012°27'0 0.0
2016-May-18 13:33N 45°19' E 012°27'0 0.0
2016-May-18 12:33N 45°19' E 012°27'0 0.0
2016-May-18 11:33N 45°19' E 012°27'0 0.0
2016-May-18 10:33N 45°19' E 012°27'0 0.0
2016-May-18 09:33N 45°19' E 012°27'0 0.0
2016-May-18 08:33N 45°19' E 012°27'0 0.0
2016-May-18 07:33N 45°19' E 012°27'0 0.0
2016-May-18 06:33N 45°19' E 012°27'0 0.0
2016-May-18 05:33N 45°19' E 012°27'0 0.0
2016-May-18 04:33N 45°19' E 012°27'0 0.0
2016-May-18 03:33N 45°19' E 012°27'0 0.0
2016-May-18 02:33N 45°19' E 012°27'0 0.0
2016-May-18 01:33N 45°19' E 012°27'0 0.0
2016-May-18 00:33N 45°19' E 012°27'0 0.0
2016-May-17 23:33N 45°19' E 012°27'0 0.0
2016-May-17 22:33N 45°19' E 012°27'0 0.0
2016-May-17 21:33N 45°19' E 012°27'0 0.0
2016-May-17 20:33N 45°19' E 012°27'  
Track history (hours):
 
Tides and Currents Weather Stations Pressure Air Temp Water Temp Dewpoint Dewpoint Depression Visibility Wind Speed Wind Dir Waves Ship Positions

Meloria

Last reported at 2016-May-27 20:23 UTC. Time now 2016-May-27 22:07 UTC.
Position N 41°49' E 010°41'.

Length 176 m; draft 9 m.

Type: Ship (hazmat cat A). MMSI: 247171100.

Date/timePositionNaut miles runAvg speedWind from/ knotsBaromVisibWave heightAir tempDewpointWater temp
2016-May-27 20:23N 41°49' E 010°41'4812.6
2016-May-27 16:33N 41°17' E 011°30'3012.1
2016-May-27 14:04N 40°56' E 011°59'712.7
2016-May-27 13:30N 40°51' E 012°06'1312.6
2016-May-27 12:29N 40°43' E 012°18'4212.7
2016-May-27 09:08N 40°15' E 013°00'1112.6
2016-May-27 08:17N 40°07' E 013°11'1012.8
2016-May-27 07:30N 40°01' E 013°21'1212.7
2016-May-27 06:33N 39°53' E 013°32'1312.9
2016-May-27 05:33N 39°44' E 013°45'1313.0
2016-May-27 04:33N 39°35' E 013°57'1313.0
2016-May-27 03:33N 39°27' E 014°10'1413.1
2016-May-27 02:27N 39°17' E 014°23'1213.1
2016-May-27 01:33N 39°09' E 014°34'1312.9
2016-May-27 00:33N 39°00' E 014°47'2813.0
2016-May-26 22:23N 38°41' E 015°13'1012.7
2016-May-26 21:33N 38°31' E 015°17'1312.6
2016-May-26 20:33N 38°18' E 015°18'5 5.0
2016-May-26 19:30N 38°13' E 015°17'0 0.0
2016-May-26 18:30N 38°13' E 015°17'0 0.1
2016-May-26 17:30N 38°13' E 015°17'1 0.9
2016-May-26 16:33N 38°13' E 015°16'0 0.3
2016-May-26 15:29N 38°13' E 015°16'0 0.0
2016-May-26 14:29N 38°13' E 015°16'0 0.0
2016-May-26 13:29N 38°13' E 015°16'0 0.0
2016-May-26 12:29N 38°13' E 015°16'0 0.0
2016-May-26 11:29N 38°13' E 015°16'0 0.0
2016-May-26 10:29N 38°13' E 015°16'0 0.0
2016-May-26 09:23N 38°13' E 015°16'0 0.0
2016-May-26 08:23N 38°13' E 015°16'0 0.0
2016-May-26 07:29N 38°13' E 015°16'0 0.0
2016-May-26 06:29N 38°13' E 015°16'0 0.0
2016-May-26 05:29N 38°13' E 015°16'0 0.0
2016-May-26 04:29N 38°13' E 015°16'0 0.0
2016-May-26 03:29N 38°13' E 015°16'0 0.0
2016-May-26 02:29N 38°13' E 015°16'0 0.0
2016-May-26 01:29N 38°13' E 015°16'0 0.0
2016-May-26 00:28N 38°13' E 015°16'0 0.0
2016-May-25 23:28N 38°13' E 015°16'0 0.0
2016-May-25 22:28N 38°13' E 015°16'0 0.0
2016-May-25 21:28N 38°13' E 015°16'0 0.0
2016-May-25 20:28N 38°13' E 015°16'0 0.0
2016-May-25 19:28N 38°13' E 015°16'0 0.0
2016-May-25 18:22N 38°13' E 015°16'0 0.0
2016-May-25 17:28N 38°13' E 015°16'0 0.0
2016-May-25 16:28N 38°13' E 015°16'0 0.0
2016-May-25 15:28N 38°13' E 015°16'0 0.0
2016-May-25 14:28N 38°13' E 015°16'0 0.0
2016-May-25 13:28N 38°13' E 015°16'0 0.0
2016-May-25 12:28N 38°13' E 015°16'0 0.0
2016-May-25 11:28N 38°13' E 015°16'0 0.0
2016-May-25 10:28N 38°13' E 015°16'0 0.0
2016-May-25 06:16N 38°13' E 015°16'0 0.6
2016-May-25 05:33N 38°13' E 015°16'1 0.1
2016-May-24 17:20N 38°13' E 015°18'0 0.0
2016-May-24 15:20N 38°13' E 015°18'0 0.0
2016-May-23 13:16N 38°13' E 015°18'5 7.5
2016-May-23 12:33N 38°17' E 015°22'1212.0
2016-May-23 11:33N 38°20' E 015°37'6 6.3
2016-May-23 10:33N 38°14' E 015°37'1212.0
2016-May-23 09:33N 38°01' E 015°36'  
2016-May-20 22:32N 45°26' E 012°14'0 0.0
2016-May-20 21:32N 45°26' E 012°14'0 0.0
2016-May-20 20:32N 45°26' E 012°14'0 0.0
2016-May-20 19:29N 45°26' E 012°14'0 0.0
2016-May-20 18:32N 45°26' E 012°14'0 0.0
2016-May-20 17:32N 45°26' E 012°14'0 0.0
2016-May-20 16:29N 45°26' E 012°14'0 0.0
2016-May-20 15:32N 45°26' E 012°14'0 0.0
2016-May-20 14:32N 45°26' E 012°14'0 0.0
2016-May-20 13:32N 45°26' E 012°14'0 0.0
2016-May-20 12:31N 45°26' E 012°14'0 0.0
2016-May-20 11:32N 45°26' E 012°14'0 0.0
2016-May-20 10:31N 45°26' E 012°14'0 0.0
2016-May-20 09:31N 45°26' E 012°14'0 0.0
2016-May-20 08:31N 45°26' E 012°14'0 0.0
2016-May-20 07:31N 45°26' E 012°14'0 0.0
2016-May-20 06:31N 45°26' E 012°14'0 0.0
2016-May-20 05:31N 45°26' E 012°14'0 0.0
2016-May-20 04:28N 45°26' E 012°14'0 0.0
2016-May-20 03:31N 45°26' E 012°14'0 0.0
2016-May-20 02:28N 45°26' E 012°14'0 0.0
2016-May-20 01:31N 45°26' E 012°14'0 0.0
2016-May-20 00:31N 45°26' E 012°14'0 0.0
2016-May-19 23:31N 45°26' E 012°14'0 0.0
2016-May-19 22:31N 45°26' E 012°14'0 0.0
2016-May-19 21:31N 45°26' E 012°14'0 0.0
2016-May-19 20:31N 45°26' E 012°14'0 0.0
2016-May-19 19:25N 45°26' E 012°14'0 0.0
2016-May-19 18:25N 45°26' E 012°14'0 0.0
2016-May-19 17:31N 45°26' E 012°14'0 0.0
2016-May-19 16:31N 45°26' E 012°14'0 0.0
2016-May-19 15:31N 45°26' E 012°14'0 0.3
2016-May-19 14:33N 45°26' E 012°14'4 4.1
2016-May-19 13:33N 45°23' E 012°15'7 7.5
2016-May-19 12:34N 45°19' E 012°25'1 1.3
2016-May-19 11:31N 45°19' E 012°27'0 0.0
2016-May-19 10:31N 45°19' E 012°27'0 0.0
2016-May-19 09:31N 45°19' E 012°27'0 0.0
2016-May-19 08:31N 45°19' E 012°27'0 0.0
2016-May-19 07:28N 45°19' E 012°27'0 0.1
2016-May-19 06:31N 45°19' E 012°27'0 0.0
2016-May-19 05:31N 45°19' E 012°27'0 0.0
2016-May-19 04:31N 45°19' E 012°27'0 0.0
2016-May-19 03:31N 45°19' E 012°27'0 0.0
2016-May-19 02:28N 45°19' E 012°27'0 0.0
2016-May-19 01:31N 45°19' E 012°27'0 0.1
2016-May-19 00:31N 45°19' E 012°27'0 0.1
2016-May-18 23:31N 45°19' E 012°27'0 0.1
2016-May-18 22:28N 45°19' E 012°27'0 0.1
2016-May-18 21:33N 45°19' E 012°27'0 0.0
2016-May-18 20:30N 45°19' E 012°27'0 0.1
2016-May-18 19:33N 45°19' E 012°27'0 0.0
2016-May-18 18:33N 45°19' E 012°27'0 0.1
2016-May-18 17:33N 45°19' E 012°27'0 0.0
2016-May-18 16:33N 45°19' E 012°27'0 0.0
2016-May-18 15:33N 45°19' E 012°27'0 0.0
2016-May-18 14:33N 45°19' E 012°27'0 0.0
2016-May-18 13:33N 45°19' E 012°27'0 0.0
2016-May-18 12:33N 45°19' E 012°27'0 0.0
2016-May-18 11:33N 45°19' E 012°27'0 0.0
2016-May-18 10:33N 45°19' E 012°27'0 0.0
2016-May-18 09:33N 45°19' E 012°27'0 0.0
2016-May-18 08:33N 45°19' E 012°27'0 0.0
2016-May-18 07:33N 45°19' E 012°27'0 0.0
2016-May-18 06:33N 45°19' E 012°27'0 0.0
2016-May-18 05:33N 45°19' E 012°27'0 0.0
2016-May-18 04:33N 45°19' E 012°27'0 0.0
2016-May-18 03:33N 45°19' E 012°27'0 0.0
2016-May-18 02:33N 45°19' E 012°27'0 0.0
2016-May-18 01:33N 45°19' E 012°27'0 0.0
2016-May-18 00:33N 45°19' E 012°27'0 0.0
2016-May-17 23:33N 45°19' E 012°27'0 0.0
2016-May-17 22:33N 45°19' E 012°27'0 0.0
2016-May-17 21:33N 45°19' E 012°27'0 0.0
2016-May-17 20:33N 45°19' E 012°27'  

Dump ship's entire track history